sensor_id;sensor_type;location;lat;lon;timestamp;P1;durP1;ratioP1;P2;durP2;ratioP2
14584;SDS011;7379;51.506;11.876;2023-07-31T00:00:07;3.03;;;1.90;;
14584;SDS011;7379;51.506;11.876;2023-07-31T00:02:34;5.60;;;1.90;;
14584;SDS011;7379;51.506;11.876;2023-07-31T00:05:01;4.70;;;2.33;;
14584;SDS011;7379;51.506;11.876;2023-07-31T00:07:28;4.18;;;2.10;;
14584;SDS011;7379;51.506;11.876;2023-07-31T00:09:55;5.75;;;2.17;;
14584;SDS011;7379;51.506;11.876;2023-07-31T00:12:24;4.60;;;2.05;;
14584;SDS011;7379;51.506;11.876;2023-07-31T00:14:51;5.10;;;2.25;;
14584;SDS011;7379;51.506;11.876;2023-07-31T00:17:17;3.05;;;2.00;;
14584;SDS011;7379;51.506;11.876;2023-07-31T00:19:44;5.65;;;2.08;;
14584;SDS011;7379;51.506;11.876;2023-07-31T00:22:14;3.28;;;2.05;;
14584;SDS011;7379;51.506;11.876;2023-07-31T00:24:40;2.83;;;2.00;;
14584;SDS011;7379;51.506;11.876;2023-07-31T00:27:07;3.45;;;2.20;;
14584;SDS011;7379;51.506;11.876;2023-07-31T00:29:35;2.80;;;2.05;;
14584;SDS011;7379;51.506;11.876;2023-07-31T00:32:02;4.15;;;2.30;;
14584;SDS011;7379;51.506;11.876;2023-07-31T00:34:29;3.60;;;2.20;;
14584;SDS011;7379;51.506;11.876;2023-07-31T00:36:56;3.47;;;2.13;;
14584;SDS011;7379;51.506;11.876;2023-07-31T00:39:22;3.85;;;2.38;;
14584;SDS011;7379;51.506;11.876;2023-07-31T00:41:49;5.00;;;2.20;;
14584;SDS011;7379;51.506;11.876;2023-07-31T00:44:16;3.17;;;2.10;;
14584;SDS011;7379;51.506;11.876;2023-07-31T00:46:44;3.63;;;2.20;;
14584;SDS011;7379;51.506;11.876;2023-07-31T00:49:11;4.53;;;2.35;;
14584;SDS011;7379;51.506;11.876;2023-07-31T00:51:38;2.92;;;2.00;;
14584;SDS011;7379;51.506;11.876;2023-07-31T00:54:05;5.13;;;2.30;;
14584;SDS011;7379;51.506;11.876;2023-07-31T00:56:32;3.45;;;2.10;;
14584;SDS011;7379;51.506;11.876;2023-07-31T00:58:59;4.55;;;2.30;;
14584;SDS011;7379;51.506;11.876;2023-07-31T01:01:27;4.18;;;2.40;;
14584;SDS011;7379;51.506;11.876;2023-07-31T01:03:55;3.42;;;2.10;;
14584;SDS011;7379;51.506;11.876;2023-07-31T01:06:25;4.25;;;2.05;;
14584;SDS011;7379;51.506;11.876;2023-07-31T01:09:01;3.08;;;2.00;;
14584;SDS011;7379;51.506;11.876;2023-07-31T01:11:30;3.80;;;2.20;;
14584;SDS011;7379;51.506;11.876;2023-07-31T01:13:59;4.13;;;2.20;;
14584;SDS011;7379;51.506;11.876;2023-07-31T01:16:26;6.57;;;2.28;;
14584;SDS011;7379;51.506;11.876;2023-07-31T01:18:53;3.20;;;2.03;;
14584;SDS011;7379;51.506;11.876;2023-07-31T01:21:28;5.88;;;2.50;;
14584;SDS011;7379;51.506;11.876;2023-07-31T01:24:08;3.30;;;2.20;;
14584;SDS011;7379;51.506;11.876;2023-07-31T01:26:51;4.28;;;2.20;;
14584;SDS011;7379;51.506;11.876;2023-07-31T01:29:23;4.30;;;2.35;;
14584;SDS011;7379;51.506;11.876;2023-07-31T01:31:55;2.75;;;1.77;;
14584;SDS011;7379;51.506;11.876;2023-07-31T01:34:26;4.95;;;2.10;;
14584;SDS011;7379;51.506;11.876;2023-07-31T01:36:53;4.15;;;2.28;;
14584;SDS011;7379;51.506;11.876;2023-07-31T01:39:21;3.65;;;2.10;;
14584;SDS011;7379;51.506;11.876;2023-07-31T01:41:48;3.78;;;2.10;;
14584;SDS011;7379;51.506;11.876;2023-07-31T01:44:16;3.33;;;2.10;;
14584;SDS011;7379;51.506;11.876;2023-07-31T01:46:42;3.78;;;2.08;;
14584;SDS011;7379;51.506;11.876;2023-07-31T01:49:09;3.30;;;2.00;;
14584;SDS011;7379;51.506;11.876;2023-07-31T01:51:36;2.83;;;2.00;;
14584;SDS011;7379;51.506;11.876;2023-07-31T01:54:03;3.17;;;2.00;;
14584;SDS011;7379;51.506;11.876;2023-07-31T01:56:30;3.25;;;1.95;;
14584;SDS011;7379;51.506;11.876;2023-07-31T01:58:57;3.72;;;2.00;;
14584;SDS011;7379;51.506;11.876;2023-07-31T02:01:25;2.35;;;1.88;;
14584;SDS011;7379;51.506;11.876;2023-07-31T02:03:51;2.63;;;1.95;;
14584;SDS011;7379;51.506;11.876;2023-07-31T02:06:19;2.90;;;2.10;;
14584;SDS011;7379;51.506;11.876;2023-07-31T02:08:45;4.30;;;2.30;;
14584;SDS011;7379;51.506;11.876;2023-07-31T02:11:12;3.53;;;2.10;;
14584;SDS011;7379;51.506;11.876;2023-07-31T02:13:39;4.18;;;2.20;;
14584;SDS011;7379;51.506;11.876;2023-07-31T02:16:05;3.53;;;2.25;;
14584;SDS011;7379;51.506;11.876;2023-07-31T02:18:33;4.68;;;2.20;;
14584;SDS011;7379;51.506;11.876;2023-07-31T02:21:00;4.43;;;2.20;;
14584;SDS011;7379;51.506;11.876;2023-07-31T02:23:27;3.70;;;1.98;;
14584;SDS011;7379;51.506;11.876;2023-07-31T02:25:54;4.00;;;2.20;;
14584;SDS011;7379;51.506;11.876;2023-07-31T02:28:20;2.50;;;2.13;;
14584;SDS011;7379;51.506;11.876;2023-07-31T02:30:47;3.20;;;2.10;;
14584;SDS011;7379;51.506;11.876;2023-07-31T02:33:16;3.00;;;2.10;;
14584;SDS011;7379;51.506;11.876;2023-07-31T02:35:44;2.92;;;2.10;;
14584;SDS011;7379;51.506;11.876;2023-07-31T02:38:10;4.72;;;2.25;;
14584;SDS011;7379;51.506;11.876;2023-07-31T02:40:37;2.70;;;2.10;;
14584;SDS011;7379;51.506;11.876;2023-07-31T02:43:05;3.25;;;1.98;;
14584;SDS011;7379;51.506;11.876;2023-07-31T02:45:31;2.70;;;1.88;;
14584;SDS011;7379;51.506;11.876;2023-07-31T02:47:58;3.40;;;2.03;;
14584;SDS011;7379;51.506;11.876;2023-07-31T02:50:25;2.88;;;2.05;;
14584;SDS011;7379;51.506;11.876;2023-07-31T02:52:54;3.05;;;2.10;;
14584;SDS011;7379;51.506;11.876;2023-07-31T02:55:20;2.08;;;1.88;;
14584;SDS011;7379;51.506;11.876;2023-07-31T02:57:47;2.78;;;2.00;;
14584;SDS011;7379;51.506;11.876;2023-07-31T03:00:20;3.67;;;2.38;;
14584;SDS011;7379;51.506;11.876;2023-07-31T03:02:47;3.35;;;2.20;;
14584;SDS011;7379;51.506;11.876;2023-07-31T03:05:13;3.40;;;2.10;;
14584;SDS011;7379;51.506;11.876;2023-07-31T03:07:40;3.22;;;2.10;;
14584;SDS011;7379;51.506;11.876;2023-07-31T03:10:09;2.80;;;2.03;;
14584;SDS011;7379;51.506;11.876;2023-07-31T03:12:35;2.92;;;2.00;;
14584;SDS011;7379;51.506;11.876;2023-07-31T03:15:02;3.95;;;2.10;;
14584;SDS011;7379;51.506;11.876;2023-07-31T03:17:29;3.00;;;2.10;;
14584;SDS011;7379;51.506;11.876;2023-07-31T03:19:56;2.53;;;2.00;;
14584;SDS011;7379;51.506;11.876;2023-07-31T03:22:23;3.45;;;2.10;;
14584;SDS011;7379;51.506;11.876;2023-07-31T03:24:49;2.83;;;2.03;;
14584;SDS011;7379;51.506;11.876;2023-07-31T03:27:17;3.47;;;2.30;;
14584;SDS011;7379;51.506;11.876;2023-07-31T03:29:44;3.20;;;2.20;;
14584;SDS011;7379;51.506;11.876;2023-07-31T03:32:11;4.45;;;2.20;;
14584;SDS011;7379;51.506;11.876;2023-07-31T03:34:38;4.10;;;2.38;;
14584;SDS011;7379;51.506;11.876;2023-07-31T03:37:05;3.15;;;2.10;;
14584;SDS011;7379;51.506;11.876;2023-07-31T03:39:34;3.33;;;2.28;;
14584;SDS011;7379;51.506;11.876;2023-07-31T03:42:00;2.42;;;1.90;;
14584;SDS011;7379;51.506;11.876;2023-07-31T03:44:28;4.25;;;2.20;;
14584;SDS011;7379;51.506;11.876;2023-07-31T03:46:55;3.17;;;2.10;;
14584;SDS011;7379;51.506;11.876;2023-07-31T03:49:22;3.40;;;2.20;;
14584;SDS011;7379;51.506;11.876;2023-07-31T03:51:49;3.40;;;2.20;;
14584;SDS011;7379;51.506;11.876;2023-07-31T03:54:16;3.72;;;2.20;;
14584;SDS011;7379;51.506;11.876;2023-07-31T03:56:43;2.97;;;2.08;;
14584;SDS011;7379;51.506;11.876;2023-07-31T03:59:09;2.75;;;2.10;;
14584;SDS011;7379;51.506;11.876;2023-07-31T04:01:37;4.30;;;2.30;;
14584;SDS011;7379;51.506;11.876;2023-07-31T04:04:04;3.75;;;2.40;;
14584;SDS011;7379;51.506;11.876;2023-07-31T04:06:31;3.67;;;2.20;;
14584;SDS011;7379;51.506;11.876;2023-07-31T04:08:57;5.10;;;2.28;;
14584;SDS011;7379;51.506;11.876;2023-07-31T04:11:24;3.38;;;2.30;;
14584;SDS011;7379;51.506;11.876;2023-07-31T04:13:51;3.58;;;2.35;;
14584;SDS011;7379;51.506;11.876;2023-07-31T04:16:18;3.78;;;2.22;;
14584;SDS011;7379;51.506;11.876;2023-07-31T04:18:46;2.50;;;2.30;;
14584;SDS011;7379;51.506;11.876;2023-07-31T04:21:12;3.22;;;2.30;;
14584;SDS011;7379;51.506;11.876;2023-07-31T04:23:39;4.40;;;2.50;;
14584;SDS011;7379;51.506;11.876;2023-07-31T04:26:06;3.33;;;2.17;;
14584;SDS011;7379;51.506;11.876;2023-07-31T04:28:32;3.78;;;2.50;;
14584;SDS011;7379;51.506;11.876;2023-07-31T04:30:59;2.95;;;2.10;;
14584;SDS011;7379;51.506;11.876;2023-07-31T04:33:26;3.45;;;2.30;;
14584;SDS011;7379;51.506;11.876;2023-07-31T04:35:54;2.80;;;2.10;;
14584;SDS011;7379;51.506;11.876;2023-07-31T04:38:23;4.25;;;2.40;;
14584;SDS011;7379;51.506;11.876;2023-07-31T04:40:50;3.47;;;2.13;;
14584;SDS011;7379;51.506;11.876;2023-07-31T04:43:16;3.42;;;2.15;;
14584;SDS011;7379;51.506;11.876;2023-07-31T04:45:45;2.97;;;2.30;;
14584;SDS011;7379;51.506;11.876;2023-07-31T04:48:12;3.00;;;2.13;;
14584;SDS011;7379;51.506;11.876;2023-07-31T04:50:39;2.80;;;2.33;;
14584;SDS011;7379;51.506;11.876;2023-07-31T04:53:07;4.35;;;2.60;;
14584;SDS011;7379;51.506;11.876;2023-07-31T04:55:34;5.70;;;2.42;;
14584;SDS011;7379;51.506;11.876;2023-07-31T04:58:00;3.90;;;2.40;;
14584;SDS011;7379;51.506;11.876;2023-07-31T05:00:27;5.47;;;2.50;;
14584;SDS011;7379;51.506;11.876;2023-07-31T05:02:54;5.80;;;2.45;;
14584;SDS011;7379;51.506;11.876;2023-07-31T05:05:21;4.18;;;2.53;;
14584;SDS011;7379;51.506;11.876;2023-07-31T05:07:47;4.82;;;2.53;;
14584;SDS011;7379;51.506;11.876;2023-07-31T05:10:15;3.47;;;2.20;;
14584;SDS011;7379;51.506;11.876;2023-07-31T05:12:42;4.45;;;2.47;;
14584;SDS011;7379;51.506;11.876;2023-07-31T05:15:09;4.30;;;2.50;;
14584;SDS011;7379;51.506;11.876;2023-07-31T05:17:36;4.40;;;2.50;;
14584;SDS011;7379;51.506;11.876;2023-07-31T05:20:03;5.03;;;2.60;;
14584;SDS011;7379;51.506;11.876;2023-07-31T05:22:30;3.97;;;2.55;;
14584;SDS011;7379;51.506;11.876;2023-07-31T05:24:57;6.47;;;2.70;;
14584;SDS011;7379;51.506;11.876;2023-07-31T05:27:25;3.03;;;2.28;;
14584;SDS011;7379;51.506;11.876;2023-07-31T05:29:52;3.38;;;2.60;;
14584;SDS011;7379;51.506;11.876;2023-07-31T05:32:18;3.30;;;2.30;;
14584;SDS011;7379;51.506;11.876;2023-07-31T05:34:45;3.50;;;2.40;;
14584;SDS011;7379;51.506;11.876;2023-07-31T05:37:12;3.50;;;2.50;;
14584;SDS011;7379;51.506;11.876;2023-07-31T05:39:38;3.78;;;2.40;;
14584;SDS011;7379;51.506;11.876;2023-07-31T05:42:05;3.92;;;2.47;;
14584;SDS011;7379;51.506;11.876;2023-07-31T05:44:33;3.65;;;2.45;;
14584;SDS011;7379;51.506;11.876;2023-07-31T05:47:00;4.07;;;2.70;;
14584;SDS011;7379;51.506;11.876;2023-07-31T05:49:27;3.58;;;2.50;;
14584;SDS011;7379;51.506;11.876;2023-07-31T05:51:54;4.30;;;2.30;;
14584;SDS011;7379;51.506;11.876;2023-07-31T05:54:20;4.07;;;2.40;;
14584;SDS011;7379;51.506;11.876;2023-07-31T05:56:47;3.00;;;2.30;;
14584;SDS011;7379;51.506;11.876;2023-07-31T05:59:14;3.17;;;2.35;;
14584;SDS011;7379;51.506;11.876;2023-07-31T06:01:43;4.85;;;2.40;;
14584;SDS011;7379;51.506;11.876;2023-07-31T06:04:10;3.47;;;2.42;;
14584;SDS011;7379;51.506;11.876;2023-07-31T06:06:36;3.38;;;2.45;;
14584;SDS011;7379;51.506;11.876;2023-07-31T06:09:03;3.55;;;2.60;;
14584;SDS011;7379;51.506;11.876;2023-07-31T06:11:30;3.67;;;2.40;;
14584;SDS011;7379;51.506;11.876;2023-07-31T06:13:57;5.53;;;2.47;;
14584;SDS011;7379;51.506;11.876;2023-07-31T06:16:23;2.83;;;2.50;;
14584;SDS011;7379;51.506;11.876;2023-07-31T06:18:53;3.65;;;2.40;;
14584;SDS011;7379;51.506;11.876;2023-07-31T06:21:20;4.55;;;2.50;;
14584;SDS011;7379;51.506;11.876;2023-07-31T06:23:46;3.67;;;2.42;;
14584;SDS011;7379;51.506;11.876;2023-07-31T06:26:13;4.93;;;2.40;;
14584;SDS011;7379;51.506;11.876;2023-07-31T06:28:40;3.42;;;2.55;;
14584;SDS011;7379;51.506;11.876;2023-07-31T06:31:07;3.97;;;2.38;;
14584;SDS011;7379;51.506;11.876;2023-07-31T06:33:34;2.80;;;2.35;;
14584;SDS011;7379;51.506;11.876;2023-07-31T06:36:02;4.15;;;2.50;;
14584;SDS011;7379;51.506;11.876;2023-07-31T06:38:29;4.70;;;2.78;;
14584;SDS011;7379;51.506;11.876;2023-07-31T06:40:55;4.22;;;2.50;;
14584;SDS011;7379;51.506;11.876;2023-07-31T06:43:22;3.10;;;2.50;;
14584;SDS011;7379;51.506;11.876;2023-07-31T06:45:49;3.33;;;2.40;;
14584;SDS011;7379;51.506;11.876;2023-07-31T06:48:16;3.55;;;2.63;;
14584;SDS011;7379;51.506;11.876;2023-07-31T06:50:43;4.10;;;2.33;;
14584;SDS011;7379;51.506;11.876;2023-07-31T06:53:11;3.75;;;2.53;;
14584;SDS011;7379;51.506;11.876;2023-07-31T06:55:37;3.28;;;2.63;;
14584;SDS011;7379;51.506;11.876;2023-07-31T06:58:04;3.00;;;2.55;;
14584;SDS011;7379;51.506;11.876;2023-07-31T07:00:31;3.63;;;2.50;;
14584;SDS011;7379;51.506;11.876;2023-07-31T07:02:58;3.17;;;2.30;;
14584;SDS011;7379;51.506;11.876;2023-07-31T07:05:25;3.88;;;2.60;;
14584;SDS011;7379;51.506;11.876;2023-07-31T07:07:52;5.65;;;2.97;;
14584;SDS011;7379;51.506;11.876;2023-07-31T07:10:20;3.85;;;2.55;;
14584;SDS011;7379;51.506;11.876;2023-07-31T07:12:47;4.50;;;2.78;;
14584;SDS011;7379;51.506;11.876;2023-07-31T07:15:14;3.42;;;2.50;;
14584;SDS011;7379;51.506;11.876;2023-07-31T07:17:40;3.53;;;2.63;;
14584;SDS011;7379;51.506;11.876;2023-07-31T07:20:08;3.72;;;2.58;;
14584;SDS011;7379;51.506;11.876;2023-07-31T07:22:35;3.72;;;2.80;;
14584;SDS011;7379;51.506;11.876;2023-07-31T07:25:01;4.57;;;2.92;;
14584;SDS011;7379;51.506;11.876;2023-07-31T07:27:30;3.67;;;2.70;;
14584;SDS011;7379;51.506;11.876;2023-07-31T07:29:56;3.67;;;2.47;;
14584;SDS011;7379;51.506;11.876;2023-07-31T07:32:23;3.53;;;2.50;;
14584;SDS011;7379;51.506;11.876;2023-07-31T07:34:50;3.78;;;2.42;;
14584;SDS011;7379;51.506;11.876;2023-07-31T07:37:17;4.15;;;2.90;;
14584;SDS011;7379;51.506;11.876;2023-07-31T07:39:44;3.13;;;2.53;;
14584;SDS011;7379;51.506;11.876;2023-07-31T07:42:10;3.83;;;2.97;;
14584;SDS011;7379;51.506;11.876;2023-07-31T07:44:39;3.67;;;2.70;;
14584;SDS011;7379;51.506;11.876;2023-07-31T07:47:05;3.40;;;2.55;;
14584;SDS011;7379;51.506;11.876;2023-07-31T07:49:32;5.72;;;2.60;;
14584;SDS011;7379;51.506;11.876;2023-07-31T07:51:59;3.15;;;2.65;;
14584;SDS011;7379;51.506;11.876;2023-07-31T07:54:26;2.80;;;2.40;;
14584;SDS011;7379;51.506;11.876;2023-07-31T07:56:53;3.10;;;2.60;;
14584;SDS011;7379;51.506;11.876;2023-07-31T07:59:20;4.18;;;2.50;;
14584;SDS011;7379;51.506;11.876;2023-07-31T08:01:48;4.32;;;3.00;;
14584;SDS011;7379;51.506;11.876;2023-07-31T08:04:14;3.58;;;2.60;;
14584;SDS011;7379;51.506;11.876;2023-07-31T08:06:41;2.50;;;2.30;;
14584;SDS011;7379;51.506;11.876;2023-07-31T08:09:08;4.63;;;2.80;;
14584;SDS011;7379;51.506;11.876;2023-07-31T08:11:35;3.42;;;2.40;;
14584;SDS011;7379;51.506;11.876;2023-07-31T08:14:01;2.88;;;2.50;;
14584;SDS011;7379;51.506;11.876;2023-07-31T08:16:28;2.90;;;2.60;;
14584;SDS011;7379;51.506;11.876;2023-07-31T08:18:56;3.55;;;2.80;;
14584;SDS011;7379;51.506;11.876;2023-07-31T08:21:23;4.55;;;2.80;;
14584;SDS011;7379;51.506;11.876;2023-07-31T08:23:50;3.25;;;2.67;;
14584;SDS011;7379;51.506;11.876;2023-07-31T08:26:17;3.05;;;2.63;;
14584;SDS011;7379;51.506;11.876;2023-07-31T08:28:44;5.05;;;2.70;;
14584;SDS011;7379;51.506;11.876;2023-07-31T08:31:11;3.63;;;2.65;;
14584;SDS011;7379;51.506;11.876;2023-07-31T08:33:38;3.90;;;2.70;;
14584;SDS011;7379;51.506;11.876;2023-07-31T08:36:06;3.45;;;2.72;;
14584;SDS011;7379;51.506;11.876;2023-07-31T08:38:33;3.72;;;2.80;;
14584;SDS011;7379;51.506;11.876;2023-07-31T08:41:00;3.20;;;2.70;;
14584;SDS011;7379;51.506;11.876;2023-07-31T08:43:28;4.70;;;2.72;;
14584;SDS011;7379;51.506;11.876;2023-07-31T08:45:56;5.05;;;2.72;;
14584;SDS011;7379;51.506;11.876;2023-07-31T08:48:23;5.20;;;2.70;;
14584;SDS011;7379;51.506;11.876;2023-07-31T08:50:51;3.58;;;2.70;;
14584;SDS011;7379;51.506;11.876;2023-07-31T08:53:19;3.58;;;2.60;;
14584;SDS011;7379;51.506;11.876;2023-07-31T08:55:46;3.95;;;2.33;;
14584;SDS011;7379;51.506;11.876;2023-07-31T08:58:14;5.05;;;3.00;;
14584;SDS011;7379;51.506;11.876;2023-07-31T09:00:41;5.28;;;2.95;;
14584;SDS011;7379;51.506;11.876;2023-07-31T09:03:12;4.47;;;2.63;;
14584;SDS011;7379;51.506;11.876;2023-07-31T09:05:41;3.97;;;2.78;;
14584;SDS011;7379;51.506;11.876;2023-07-31T09:08:09;3.70;;;2.75;;
14584;SDS011;7379;51.506;11.876;2023-07-31T09:10:41;3.40;;;2.40;;
14584;SDS011;7379;51.506;11.876;2023-07-31T09:13:08;4.15;;;2.63;;
14584;SDS011;7379;51.506;11.876;2023-07-31T09:15:35;3.78;;;2.50;;
14584;SDS011;7379;51.506;11.876;2023-07-31T09:18:03;3.58;;;2.67;;
14584;SDS011;7379;51.506;11.876;2023-07-31T09:20:31;4.38;;;2.80;;
14584;SDS011;7379;51.506;11.876;2023-07-31T09:23:02;4.15;;;2.67;;
14584;SDS011;7379;51.506;11.876;2023-07-31T09:25:32;4.25;;;2.60;;
14584;SDS011;7379;51.506;11.876;2023-07-31T09:28:02;3.22;;;2.58;;
14584;SDS011;7379;51.506;11.876;2023-07-31T09:30:30;3.30;;;2.90;;
14584;SDS011;7379;51.506;11.876;2023-07-31T09:33:09;3.65;;;2.60;;
14584;SDS011;7379;51.506;11.876;2023-07-31T09:35:36;4.22;;;2.67;;
14584;SDS011;7379;51.506;11.876;2023-07-31T09:38:06;3.35;;;2.70;;
14584;SDS011;7379;51.506;11.876;2023-07-31T09:40:35;3.65;;;2.60;;
14584;SDS011;7379;51.506;11.876;2023-07-31T09:43:04;3.85;;;2.67;;
14584;SDS011;7379;51.506;11.876;2023-07-31T09:45:33;3.20;;;2.63;;
14584;SDS011;7379;51.506;11.876;2023-07-31T09:48:01;4.13;;;2.83;;
14584;SDS011;7379;51.506;11.876;2023-07-31T09:50:29;3.50;;;2.67;;
14584;SDS011;7379;51.506;11.876;2023-07-31T09:52:55;4.15;;;3.00;;
14584;SDS011;7379;51.506;11.876;2023-07-31T09:55:23;4.20;;;2.78;;
14584;SDS011;7379;51.506;11.876;2023-07-31T09:57:50;4.10;;;2.97;;
14584;SDS011;7379;51.506;11.876;2023-07-31T10:00:19;3.97;;;2.88;;
14584;SDS011;7379;51.506;11.876;2023-07-31T10:02:47;4.43;;;2.97;;
14584;SDS011;7379;51.506;11.876;2023-07-31T10:05:14;4.15;;;3.08;;
14584;SDS011;7379;51.506;11.876;2023-07-31T10:07:42;4.68;;;3.20;;
14584;SDS011;7379;51.506;11.876;2023-07-31T10:10:15;4.00;;;2.70;;
14584;SDS011;7379;51.506;11.876;2023-07-31T10:12:42;4.35;;;3.00;;
14584;SDS011;7379;51.506;11.876;2023-07-31T10:15:11;5.32;;;3.28;;
14584;SDS011;7379;51.506;11.876;2023-07-31T10:17:40;5.28;;;3.25;;
14584;SDS011;7379;51.506;11.876;2023-07-31T10:20:07;4.32;;;3.13;;
14584;SDS011;7379;51.506;11.876;2023-07-31T10:22:35;4.97;;;3.10;;
14584;SDS011;7379;51.506;11.876;2023-07-31T10:25:03;4.53;;;3.17;;
14584;SDS011;7379;51.506;11.876;2023-07-31T10:27:33;4.35;;;3.20;;
14584;SDS011;7379;51.506;11.876;2023-07-31T10:30:01;5.90;;;3.25;;
14584;SDS011;7379;51.506;11.876;2023-07-31T10:32:31;4.60;;;3.38;;
14584;SDS011;7379;51.506;11.876;2023-07-31T10:35:00;5.07;;;3.20;;
14584;SDS011;7379;51.506;11.876;2023-07-31T10:37:29;5.32;;;3.28;;
14584;SDS011;7379;51.506;11.876;2023-07-31T10:40:02;4.50;;;3.42;;
14584;SDS011;7379;51.506;11.876;2023-07-31T10:42:31;4.53;;;3.42;;
14584;SDS011;7379;51.506;11.876;2023-07-31T10:45:00;4.43;;;3.25;;
14584;SDS011;7379;51.506;11.876;2023-07-31T10:47:28;4.07;;;2.95;;
14584;SDS011;7379;51.506;11.876;2023-07-31T10:50:11;3.78;;;3.20;;
14584;SDS011;7379;51.506;11.876;2023-07-31T10:52:48;4.90;;;3.33;;
14584;SDS011;7379;51.506;11.876;2023-07-31T10:55:16;5.13;;;3.38;;
14584;SDS011;7379;51.506;11.876;2023-07-31T10:57:51;3.63;;;3.08;;
14584;SDS011;7379;51.506;11.876;2023-07-31T11:00:18;3.75;;;3.03;;
14584;SDS011;7379;51.506;11.876;2023-07-31T11:02:55;5.32;;;3.70;;
14584;SDS011;7379;51.506;11.876;2023-07-31T11:05:47;4.38;;;3.30;;
14584;SDS011;7379;51.506;11.876;2023-07-31T11:08:16;4.95;;;3.40;;
14584;SDS011;7379;51.506;11.876;2023-07-31T11:10:44;4.18;;;3.00;;
14584;SDS011;7379;51.506;11.876;2023-07-31T11:13:12;5.78;;;3.58;;
14584;SDS011;7379;51.506;11.876;2023-07-31T11:15:39;4.38;;;3.22;;
14584;SDS011;7379;51.506;11.876;2023-07-31T11:18:06;5.47;;;3.47;;
14584;SDS011;7379;51.506;11.876;2023-07-31T11:20:34;4.00;;;3.20;;
14584;SDS011;7379;51.506;11.876;2023-07-31T11:23:03;4.40;;;3.15;;
14584;SDS011;7379;51.506;11.876;2023-07-31T11:25:32;3.65;;;3.13;;
14584;SDS011;7379;51.506;11.876;2023-07-31T11:28:01;3.80;;;3.28;;
14584;SDS011;7379;51.506;11.876;2023-07-31T11:30:29;4.40;;;3.60;;
14584;SDS011;7379;51.506;11.876;2023-07-31T11:32:56;5.60;;;3.20;;
14584;SDS011;7379;51.506;11.876;2023-07-31T11:35:23;4.55;;;3.50;;
14584;SDS011;7379;51.506;11.876;2023-07-31T11:37:50;4.65;;;3.45;;
14584;SDS011;7379;51.506;11.876;2023-07-31T11:40:18;4.47;;;3.38;;
14584;SDS011;7379;51.506;11.876;2023-07-31T11:42:44;4.97;;;3.30;;
14584;SDS011;7379;51.506;11.876;2023-07-31T11:45:11;3.70;;;2.85;;
14584;SDS011;7379;51.506;11.876;2023-07-31T11:47:38;5.90;;;3.60;;
14584;SDS011;7379;51.506;11.876;2023-07-31T11:50:05;5.57;;;3.70;;
14584;SDS011;7379;51.506;11.876;2023-07-31T11:52:36;5.15;;;3.13;;
14584;SDS011;7379;51.506;11.876;2023-07-31T11:55:06;4.68;;;3.08;;
14584;SDS011;7379;51.506;11.876;2023-07-31T11:57:36;4.72;;;3.35;;
14584;SDS011;7379;51.506;11.876;2023-07-31T12:00:04;5.82;;;3.45;;
14584;SDS011;7379;51.506;11.876;2023-07-31T12:02:33;5.10;;;3.40;;
14584;SDS011;7379;51.506;11.876;2023-07-31T12:05:00;6.43;;;3.70;;
14584;SDS011;7379;51.506;11.876;2023-07-31T12:07:28;4.45;;;3.22;;
14584;SDS011;7379;51.506;11.876;2023-07-31T12:10:09;4.78;;;3.40;;
14584;SDS011;7379;51.506;11.876;2023-07-31T12:12:37;5.10;;;3.47;;
14584;SDS011;7379;51.506;11.876;2023-07-31T12:15:12;4.03;;;3.45;;
14584;SDS011;7379;51.506;11.876;2023-07-31T12:17:40;4.82;;;3.50;;
14584;SDS011;7379;51.506;11.876;2023-07-31T12:20:07;5.38;;;3.90;;
14584;SDS011;7379;51.506;11.876;2023-07-31T12:22:35;4.53;;;3.33;;
14584;SDS011;7379;51.506;11.876;2023-07-31T12:25:02;5.00;;;3.50;;
14584;SDS011;7379;51.506;11.876;2023-07-31T12:27:32;5.43;;;3.30;;
14584;SDS011;7379;51.506;11.876;2023-07-31T12:30:00;5.38;;;3.67;;
14584;SDS011;7379;51.506;11.876;2023-07-31T12:32:29;5.30;;;3.63;;
14584;SDS011;7379;51.506;11.876;2023-07-31T12:34:59;5.55;;;3.50;;
14584;SDS011;7379;51.506;11.876;2023-07-31T12:37:26;6.60;;;3.40;;
14584;SDS011;7379;51.506;11.876;2023-07-31T12:39:53;4.10;;;3.35;;
14584;SDS011;7379;51.506;11.876;2023-07-31T12:42:19;4.53;;;3.70;;
14584;SDS011;7379;51.506;11.876;2023-07-31T12:44:46;5.45;;;3.80;;
14584;SDS011;7379;51.506;11.876;2023-07-31T12:47:14;5.53;;;3.70;;
14584;SDS011;7379;51.506;11.876;2023-07-31T12:49:41;4.32;;;3.10;;
14584;SDS011;7379;51.506;11.876;2023-07-31T12:52:08;5.43;;;3.70;;
14584;SDS011;7379;51.506;11.876;2023-07-31T12:54:34;6.00;;;3.90;;
14584;SDS011;7379;51.506;11.876;2023-07-31T12:57:01;6.85;;;3.53;;
14584;SDS011;7379;51.506;11.876;2023-07-31T12:59:28;7.38;;;3.28;;
14584;SDS011;7379;51.506;11.876;2023-07-31T13:01:55;5.88;;;3.20;;
14584;SDS011;7379;51.506;11.876;2023-07-31T13:04:23;5.70;;;3.67;;
14584;SDS011;7379;51.506;11.876;2023-07-31T13:06:49;4.97;;;3.28;;
14584;SDS011;7379;51.506;11.876;2023-07-31T13:09:16;5.82;;;3.60;;
14584;SDS011;7379;51.506;11.876;2023-07-31T13:11:43;5.22;;;3.35;;
14584;SDS011;7379;51.506;11.876;2023-07-31T13:14:10;4.28;;;3.22;;
14584;SDS011;7379;51.506;11.876;2023-07-31T13:16:37;3.70;;;3.00;;
14584;SDS011;7379;51.506;11.876;2023-07-31T13:19:04;4.32;;;3.28;;
14584;SDS011;7379;51.506;11.876;2023-07-31T13:21:32;4.97;;;3.58;;
14584;SDS011;7379;51.506;11.876;2023-07-31T13:24:00;5.90;;;3.60;;
14584;SDS011;7379;51.506;11.876;2023-07-31T13:26:27;5.65;;;3.30;;
14584;SDS011;7379;51.506;11.876;2023-07-31T13:28:54;5.10;;;3.22;;
14584;SDS011;7379;51.506;11.876;2023-07-31T13:31:21;6.03;;;3.83;;
14584;SDS011;7379;51.506;11.876;2023-07-31T13:33:48;6.25;;;3.40;;
14584;SDS011;7379;51.506;11.876;2023-07-31T13:36:15;4.28;;;3.03;;
14584;SDS011;7379;51.506;11.876;2023-07-31T13:38:43;4.47;;;3.28;;
14584;SDS011;7379;51.506;11.876;2023-07-31T13:41:10;6.25;;;3.40;;
14584;SDS011;7379;51.506;11.876;2023-07-31T13:43:36;5.47;;;3.60;;
14584;SDS011;7379;51.506;11.876;2023-07-31T13:46:03;4.72;;;3.45;;
14584;SDS011;7379;51.506;11.876;2023-07-31T13:48:31;3.83;;;3.15;;
14584;SDS011;7379;51.506;11.876;2023-07-31T13:50:59;4.85;;;3.25;;
14584;SDS011;7379;51.506;11.876;2023-07-31T13:53:26;4.35;;;2.90;;
14584;SDS011;7379;51.506;11.876;2023-07-31T13:55:54;4.82;;;3.05;;
14584;SDS011;7379;51.506;11.876;2023-07-31T13:58:20;3.65;;;2.90;;
14584;SDS011;7379;51.506;11.876;2023-07-31T14:00:47;4.28;;;3.00;;
14584;SDS011;7379;51.506;11.876;2023-07-31T14:03:14;4.53;;;2.80;;
14584;SDS011;7379;51.506;11.876;2023-07-31T14:05:40;3.20;;;2.60;;
14584;SDS011;7379;51.506;11.876;2023-07-31T14:08:07;4.78;;;2.92;;
14584;SDS011;7379;51.506;11.876;2023-07-31T14:10:34;3.40;;;2.80;;
14584;SDS011;7379;51.506;11.876;2023-07-31T14:13:02;3.67;;;2.65;;
14584;SDS011;7379;51.506;11.876;2023-07-31T14:15:29;5.30;;;2.70;;
14584;SDS011;7379;51.506;11.876;2023-07-31T14:17:57;4.00;;;2.70;;
14584;SDS011;7379;51.506;11.876;2023-07-31T14:20:23;4.15;;;2.60;;
14584;SDS011;7379;51.506;11.876;2023-07-31T14:22:50;6.45;;;3.08;;
14584;SDS011;7379;51.506;11.876;2023-07-31T14:25:17;4.47;;;2.55;;
14584;SDS011;7379;51.506;11.876;2023-07-31T14:27:43;3.75;;;2.72;;
14584;SDS011;7379;51.506;11.876;2023-07-31T14:30:11;5.05;;;2.83;;
14584;SDS011;7379;51.506;11.876;2023-07-31T14:32:38;4.47;;;2.60;;
14584;SDS011;7379;51.506;11.876;2023-07-31T14:35:05;3.17;;;2.60;;
14584;SDS011;7379;51.506;11.876;2023-07-31T14:37:36;7.22;;;2.90;;
14584;SDS011;7379;51.506;11.876;2023-07-31T14:40:04;7.18;;;2.80;;
14584;SDS011;7379;51.506;11.876;2023-07-31T14:42:31;7.93;;;2.92;;
14584;SDS011;7379;51.506;11.876;2023-07-31T14:44:58;4.20;;;3.15;;
14584;SDS011;7379;51.506;11.876;2023-07-31T14:47:26;3.38;;;2.72;;
14584;SDS011;7379;51.506;11.876;2023-07-31T14:49:53;6.13;;;3.05;;